Time;durP1;ratioP1;P1;durP2;ratioP2;P2;SDS_P1;SDS_P2;PMS_P1;PMS_P2;Temp;Humidity;BMP_temperature;BMP_pressure;BME280_temperature;BME280_humidity;BME280_pressure;Samples;Min_cycle;Max_cycle;Signal;HPM_P1;HPM_P2
2021/06/04 00:01:22;;;;;;;7.93;4.95;;;;;;;;;;5037680;28;20052;-94
2021/06/04 00:03:48;;;;;;;9.27;4.90;;;;;;;;;;5036520;28;20465;-96
2021/06/04 00:06:15;;;;;;;10.90;5.05;;;;;;;;;;5020238;28;20034;-94
2021/06/04 00:08:42;;;;;;;8.20;4.72;;;;;;;;;;5037121;28;20040;-92
2021/06/04 00:11:17;;;;;;;9.40;4.75;;;;;;;;;;5036225;28;20025;-93
2021/06/04 00:13:44;;;;;;;7.78;4.50;;;;;;;;;;5036466;28;20036;-93
2021/06/04 00:16:14;;;;;;;8.32;5.20;;;;;;;;;;5036773;28;20026;-94
2021/06/04 00:18:41;;;;;;;8.10;4.75;;;;;;;;;;5037354;28;20029;-91
2021/06/04 00:21:09;;;;;;;7.72;4.35;;;;;;;;;;5036796;28;20112;-93
2021/06/04 00:23:36;;;;;;;8.30;4.90;;;;;;;;;;5036921;28;20371;-93
2021/06/04 00:26:04;;;;;;;8.82;5.15;;;;;;;;;;5036495;28;20021;-92
2021/06/04 00:28:31;;;;;;;8.63;4.60;;;;;;;;;;5020496;28;20593;-91
2021/06/04 00:30:57;;;;;;;8.63;5.10;;;;;;;;;;5035881;28;20029;-91
2021/06/04 00:33:24;;;;;;;7.35;4.70;;;;;;;;;;5036527;28;20037;-91
2021/06/04 00:35:50;;;;;;;8.25;4.35;;;;;;;;;;5036516;28;20067;-94
2021/06/04 00:38:16;;;;;;;10.52;4.82;;;;;;;;;;5036684;28;20095;-89
2021/06/04 00:40:52;;;;;;;8.98;5.07;;;;;;;;;;5035466;28;20025;-93
2021/06/04 00:43:18;;;;;;;8.10;5.40;;;;;;;;;;5036658;28;20494;-94
2021/06/04 00:45:48;;;;;;;13.82;5.22;;;;;;;;;;5036449;28;20033;-83
2021/06/04 00:48:15;;;;;;;8.57;4.38;;;;;;;;;;5035860;28;20036;-90
2021/06/04 00:50:44;;;;;;;6.38;4.10;;;;;;;;;;5036260;28;20067;-89
2021/06/04 00:53:10;;;;;;;6.22;4.15;;;;;;;;;;5036360;28;20042;-88
2021/06/04 00:55:37;;;;;;;7.95;4.85;;;;;;;;;;5036572;28;20033;-94
2021/06/04 00:58:04;;;;;;;7.60;4.78;;;;;;;;;;5036342;28;20025;-93
2021/06/04 01:00:34;;;;;;;9.10;5.28;;;;;;;;;;5036505;28;20030;-92
2021/06/04 01:03:00;;;;;;;7.93;4.47;;;;;;;;;;5036073;28;20021;-92
2021/06/04 01:05:28;;;;;;;7.93;4.57;;;;;;;;;;5054719;28;20026;-85
2021/06/04 01:07:55;;;;;;;9.90;4.53;;;;;;;;;;5043837;28;20029;-94
2021/06/04 01:10:44;;;;;;;6.50;4.47;;;;;;;;;;5036459;28;20021;-94
2021/06/04 01:13:20;;;;;;;8.13;4.25;;;;;;;;;;5030497;28;20049;-94
2021/06/04 01:15:49;;;;;;;7.93;4.55;;;;;;;;;;5035925;28;20025;-94
2021/06/04 01:18:18;;;;;;;12.77;4.70;;;;;;;;;;5035813;28;20030;-94
2021/06/04 01:20:49;;;;;;;8.82;4.40;;;;;;;;;;5035833;28;20036;-90
2021/06/04 01:23:41;;;;;;;7.15;4.68;;;;;;;;;;5037546;28;20026;-93
2021/06/04 01:26:08;;;;;;;10.05;4.75;;;;;;;;;;5033810;28;20033;-93
2021/06/04 01:28:38;;;;;;;8.07;4.72;;;;;;;;;;5035883;28;20021;-91
2021/06/04 01:31:25;;;;;;;6.63;4.43;;;;;;;;;;5035713;28;20116;-95
2021/06/04 01:33:53;;;;;;;8.25;4.60;;;;;;;;;;5035278;28;20099;-94
2021/06/04 01:36:23;;;;;;;7.35;4.63;;;;;;;;;;5035176;28;20021;-92
2021/06/04 01:38:50;;;;;;;9.15;5.03;;;;;;;;;;5034906;28;20445;-96
2021/06/04 01:41:20;;;;;;;8.85;4.95;;;;;;;;;;5035162;28;20029;-94
2021/06/04 01:43:51;;;;;;;7.90;5.00;;;;;;;;;;5035534;28;20026;-94
2021/06/04 01:46:20;;;;;;;9.88;5.43;;;;;;;;;;5035542;28;20116;-92
2021/06/04 01:48:48;;;;;;;12.35;5.32;;;;;;;;;;5035818;28;20116;-95
2021/06/04 01:51:20;;;;;;;10.55;5.13;;;;;;;;;;5035470;28;20041;-94
2021/06/04 01:53:52;;;;;;;8.80;5.32;;;;;;;;;;5035305;28;20026;-92
2021/06/04 01:56:27;;;;;;;10.07;5.60;;;;;;;;;;5035015;28;20428;-95
2021/06/04 01:59:16;;;;;;;7.35;4.75;;;;;;;;;;5035037;28;20112;-92
2021/06/04 02:01:45;;;;;;;9.75;6.03;;;;;;;;;;5029558;28;20045;-93
2021/06/04 02:04:14;;;;;;;9.57;5.38;;;;;;;;;;5034686;28;20115;-92
2021/06/04 02:06:41;;;;;;;9.82;5.25;;;;;;;;;;5034240;28;20029;-94
2021/06/04 02:09:10;;;;;;;8.88;5.75;;;;;;;;;;5034973;28;20021;-95
2021/06/04 02:11:36;;;;;;;8.38;5.13;;;;;;;;;;5035814;28;20044;-95
2021/06/04 02:14:06;;;;;;;7.53;4.80;;;;;;;;;;5035054;28;20053;-91
2021/06/04 02:16:37;;;;;;;7.05;4.38;;;;;;;;;;5035173;28;20025;-95
2021/06/04 02:19:12;;;;;;;6.97;4.75;;;;;;;;;;5034404;28;20035;-90
2021/06/04 02:21:44;;;;;;;7.60;4.60;;;;;;;;;;5035435;28;20029;-92
2021/06/04 02:24:20;;;;;;;13.18;4.82;;;;;;;;;;5035462;28;20032;-93
2021/06/04 02:26:56;;;;;;;9.05;4.57;;;;;;;;;;5033573;28;20024;-92
2021/06/04 02:29:22;;;;;;;6.78;3.92;;;;;;;;;;5033853;28;20032;-90
2021/06/04 02:31:53;;;;;;;6.60;4.25;;;;;;;;;;5033898;28;20060;-96
2021/06/04 02:34:26;;;;;;;8.95;4.65;;;;;;;;;;5032841;28;20022;-95
2021/06/04 02:37:02;;;;;;;9.40;4.68;;;;;;;;;;5034752;28;20017;-94
2021/06/04 02:39:31;;;;;;;7.05;4.13;;;;;;;;;;5034831;28;20057;-95
2021/06/04 02:42:23;;;;;;;7.60;4.38;;;;;;;;;;5034321;28;20026;-93
2021/06/04 02:44:52;;;;;;;8.23;4.15;;;;;;;;;;5032376;28;20041;-96
2021/06/04 02:47:20;;;;;;;7.78;4.07;;;;;;;;;;5036722;28;20118;-95
2021/06/04 02:49:47;;;;;;;10.93;5.05;;;;;;;;;;5038761;28;20030;-85
2021/06/04 02:52:29;;;;;;;14.85;4.85;;;;;;;;;;5039548;28;20152;-94
2021/06/04 02:54:56;;;;;;;14.10;4.88;;;;;;;;;;5049407;28;20013;-91
2021/06/04 02:57:25;;;;;;;6.07;3.90;;;;;;;;;;5040075;28;20402;-93
2021/06/04 02:59:51;;;;;;;8.13;4.88;;;;;;;;;;5034195;28;20022;-95
2021/06/04 03:02:25;;;;;;;5.63;3.92;;;;;;;;;;5034264;28;20389;-95
2021/06/04 03:04:53;;;;;;;9.38;4.15;;;;;;;;;;5037380;28;20104;-96
2021/06/04 03:07:25;;;;;;;7.63;4.15;;;;;;;;;;5038879;28;20438;-93
2021/06/04 03:09:52;;;;;;;10.90;4.95;;;;;;;;;;5038366;28;20060;-94
2021/06/04 03:12:21;;;;;;;13.15;4.85;;;;;;;;;;5038091;28;20037;-95
2021/06/04 03:14:49;;;;;;;8.10;5.05;;;;;;;;;;5037997;28;20022;-96
2021/06/04 03:17:16;;;;;;;6.55;4.38;;;;;;;;;;5037860;28;20025;-95
2021/06/04 03:19:43;;;;;;;8.48;4.60;;;;;;;;;;5037376;28;20150;-96
2021/06/04 03:22:12;;;;;;;8.88;5.22;;;;;;;;;;5038463;28;20032;-94
2021/06/04 03:24:40;;;;;;;9.65;4.50;;;;;;;;;;5037529;28;20018;-91
2021/06/04 03:27:08;;;;;;;11.75;5.32;;;;;;;;;;5037733;28;20048;-96
2021/06/04 03:29:34;;;;;;;8.63;4.80;;;;;;;;;;5037645;28;20096;-86
2021/06/04 03:32:04;;;;;;;10.45;4.75;;;;;;;;;;5037541;28;20034;-96
2021/06/04 03:34:31;;;;;;;10.30;4.75;;;;;;;;;;5037518;28;20053;-93
2021/06/04 03:36:58;;;;;;;11.63;4.90;;;;;;;;;;5037211;28;20040;-96
2021/06/04 03:39:27;;;;;;;8.95;4.65;;;;;;;;;;5037908;28;20026;-95
2021/06/04 03:41:54;;;;;;;10.20;4.90;;;;;;;;;;5037859;28;20079;-89
2021/06/04 03:44:21;;;;;;;11.20;5.07;;;;;;;;;;5038923;28;20021;-96
2021/06/04 03:46:48;;;;;;;8.80;4.55;;;;;;;;;;5037548;28;20029;-92
2021/06/04 03:49:15;;;;;;;8.35;4.18;;;;;;;;;;5037571;28;20025;-95
2021/06/04 03:51:43;;;;;;;10.00;4.18;;;;;;;;;;5036435;28;20050;-95
2021/06/04 03:54:12;;;;;;;9.15;5.03;;;;;;;;;;5037306;28;20032;-95
2021/06/04 03:56:39;;;;;;;12.18;5.35;;;;;;;;;;5037581;28;20090;-93
2021/06/04 03:59:06;;;;;;;12.73;4.55;;;;;;;;;;5037574;28;20029;-92
2021/06/04 04:01:35;;;;;;;9.50;5.10;;;;;;;;;;5037759;28;20037;-93
2021/06/04 04:04:01;;;;;;;10.32;4.75;;;;;;;;;;5037797;28;20079;-95
2021/06/04 04:06:27;;;;;;;7.97;3.72;;;;;;;;;;5036840;28;20029;-96
2021/06/04 04:08:54;;;;;;;5.65;3.45;;;;;;;;;;5036223;28;20036;-93
2021/06/04 04:11:21;;;;;;;8.95;3.47;;;;;;;;;;5036698;28;20399;-96
2021/06/04 04:13:47;;;;;;;5.13;3.38;;;;;;;;;;5037300;28;20025;-94
2021/06/04 04:16:13;;;;;;;9.75;3.67;;;;;;;;;;5036506;28;20037;-92
2021/06/04 04:18:40;;;;;;;4.70;2.88;;;;;;;;;;5036677;28;20120;-91
2021/06/04 04:21:07;;;;;;;5.05;3.35;;;;;;;;;;5036912;28;20018;-83
2021/06/04 04:23:38;;;;;;;5.90;3.25;;;;;;;;;;5036207;28;20025;-96
2021/06/04 04:26:06;;;;;;;5.18;2.72;;;;;;;;;;5037239;28;20029;-94
2021/06/04 04:28:33;;;;;;;5.47;3.13;;;;;;;;;;5037024;28;20482;-95
2021/06/04 04:31:00;;;;;;;5.90;3.50;;;;;;;;;;5036434;28;20029;-94
2021/06/04 04:33:27;;;;;;;5.22;2.97;;;;;;;;;;5036508;28;20032;-90
2021/06/04 04:35:54;;;;;;;5.85;3.25;;;;;;;;;;5037057;28;20025;-91
2021/06/04 04:38:21;;;;;;;4.28;3.17;;;;;;;;;;5036044;28;20032;-94
2021/06/04 04:40:48;;;;;;;8.23;3.17;;;;;;;;;;5036531;28;20087;-94
2021/06/04 04:43:14;;;;;;;15.75;3.08;;;;;;;;;;5039910;28;20025;-87
2021/06/04 04:45:41;;;;;;;4.68;2.60;;;;;;;;;;5042254;28;20029;-95
2021/06/04 04:48:08;;;;;;;4.93;2.63;;;;;;;;;;5036620;28;20025;-93
2021/06/04 04:50:38;;;;;;;4.60;2.80;;;;;;;;;;5036157;28;20029;-93
2021/06/04 04:53:05;;;;;;;3.78;2.58;;;;;;;;;;5036036;28;20061;-90
2021/06/04 04:55:34;;;;;;;3.03;2.35;;;;;;;;;;5035920;28;20034;-93
2021/06/04 04:58:00;;;;;;;4.22;2.60;;;;;;;;;;5036504;28;20390;-91
2021/06/04 05:00:28;;;;;;;5.38;2.70;;;;;;;;;;5036367;28;20486;-92
2021/06/04 05:02:55;;;;;;;5.05;2.80;;;;;;;;;;5036084;28;20150;-89
2021/06/04 05:05:22;;;;;;;4.47;2.60;;;;;;;;;;5036584;28;20005;-93
2021/06/04 05:07:48;;;;;;;5.20;2.75;;;;;;;;;;5036319;28;20037;-92
2021/06/04 05:10:15;;;;;;;5.55;2.80;;;;;;;;;;5035918;28;20025;-95
2021/06/04 05:12:41;;;;;;;6.85;3.13;;;;;;;;;;5036093;28;20072;-94
2021/06/04 05:15:09;;;;;;;4.13;2.88;;;;;;;;;;5036273;28;20064;-92
2021/06/04 05:17:36;;;;;;;5.47;2.67;;;;;;;;;;5053007;28;20017;-90
2021/06/04 05:20:03;;;;;;;4.70;3.00;;;;;;;;;;5054156;28;20044;-92
2021/06/04 05:22:29;;;;;;;6.20;3.17;;;;;;;;;;5056175;28;20022;-93
2021/06/04 05:24:56;;;;;;;4.97;2.97;;;;;;;;;;5056393;28;20096;-92
2021/06/04 05:27:22;;;;;;;5.65;3.28;;;;;;;;;;5054835;28;20021;-90
2021/06/04 05:29:49;;;;;;;5.30;3.10;;;;;;;;;;5055276;28;20029;-92
2021/06/04 05:32:15;;;;;;;4.55;3.33;;;;;;;;;;5055327;28;20044;-93
2021/06/04 05:34:42;;;;;;;5.20;3.05;;;;;;;;;;5053628;28;20470;-80
2021/06/04 05:37:08;;;;;;;8.35;3.20;;;;;;;;;;5053617;28;20051;-82
2021/06/04 05:39:34;;;;;;;4.55;3.05;;;;;;;;;;5053664;28;20028;-79
2021/06/04 05:42:01;;;;;;;8.93;3.03;;;;;;;;;;5053208;28;20025;-82
2021/06/04 05:44:28;;;;;;;4.57;2.85;;;;;;;;;;5053490;28;20034;-84
2021/06/04 05:46:56;;;;;;;5.07;2.90;;;;;;;;;;5053172;28;20036;-81
2021/06/04 05:49:22;;;;;;;7.85;3.05;;;;;;;;;;5053480;28;20061;-81
2021/06/04 05:51:49;;;;;;;6.55;3.10;;;;;;;;;;5054200;28;20490;-80
2021/06/04 05:54:16;;;;;;;4.80;3.25;;;;;;;;;;5053191;28;20031;-83
2021/06/04 05:56:43;;;;;;;6.57;3.30;;;;;;;;;;5053283;28;20128;-82
2021/06/04 05:59:12;;;;;;;5.72;3.50;;;;;;;;;;5053279;28;20532;-94
2021/06/04 06:01:38;;;;;;;5.93;2.67;;;;;;;;;;5046214;28;20389;-84
2021/06/04 06:04:05;;;;;;;5.25;3.25;;;;;;;;;;5034514;28;20132;-84
2021/06/04 06:06:31;;;;;;;5.15;2.95;;;;;;;;;;5032465;28;20033;-90
2021/06/04 06:08:57;;;;;;;8.95;3.50;;;;;;;;;;5035301;28;20052;-82
2021/06/04 06:11:25;;;;;;;8.98;3.30;;;;;;;;;;5042312;28;20124;-80
2021/06/04 06:13:58;;;;;;;4.47;3.10;;;;;;;;;;5052691;28;20025;-83
2021/06/04 06:16:26;;;;;;;5.85;3.40;;;;;;;;;;5053223;28;20044;-85
2021/06/04 06:18:52;;;;;;;4.95;3.10;;;;;;;;;;5054050;28;20025;-82
2021/06/04 06:21:18;;;;;;;4.80;2.83;;;;;;;;;;5054089;28;20462;-92
2021/06/04 06:23:45;;;;;;;6.40;2.97;;;;;;;;;;5053801;28;20029;-86
2021/06/04 06:26:23;;;;;;;5.25;2.80;;;;;;;;;;5053920;28;20025;-89
2021/06/04 06:28:50;;;;;;;4.80;3.20;;;;;;;;;;5053206;28;20029;-80
2021/06/04 06:31:20;;;;;;;4.68;3.20;;;;;;;;;;5052431;28;20381;-80
2021/06/04 06:33:46;;;;;;;5.68;2.85;;;;;;;;;;5053050;28;20108;-85
2021/06/04 06:36:14;;;;;;;4.57;3.15;;;;;;;;;;5052942;28;20025;-87
2021/06/04 06:38:40;;;;;;;7.38;3.17;;;;;;;;;;5058128;28;20524;-83
2021/06/04 06:41:08;;;;;;;7.38;3.20;;;;;;;;;;5058518;28;20063;-82
2021/06/04 06:43:36;;;;;;;8.25;3.40;;;;;;;;;;5057154;28;20053;-92
2021/06/04 06:46:03;;;;;;;5.18;3.30;;;;;;;;;;5056551;28;20025;-79
2021/06/04 06:48:29;;;;;;;4.70;3.13;;;;;;;;;;5056777;28;20025;-82
2021/06/04 06:50:57;;;;;;;5.28;3.05;;;;;;;;;;5056708;28;20504;-84
2021/06/04 06:53:24;;;;;;;5.55;3.00;;;;;;;;;;5056464;28;20387;-82
2021/06/04 06:55:51;;;;;;;5.65;3.40;;;;;;;;;;5056601;28;20057;-80
2021/06/04 06:58:18;;;;;;;7.93;3.33;;;;;;;;;;5058184;28;20104;-83
2021/06/04 07:00:45;;;;;;;6.68;3.20;;;;;;;;;;5056573;28;20032;-79
2021/06/04 07:03:11;;;;;;;5.88;3.20;;;;;;;;;;5058377;28;20029;-93
2021/06/04 07:05:38;;;;;;;9.15;4.05;;;;;;;;;;5057306;28;20029;-92
2021/06/04 07:08:05;;;;;;;5.10;3.60;;;;;;;;;;5057616;28;20068;-92
2021/06/04 07:10:32;;;;;;;4.75;3.40;;;;;;;;;;5058748;28;20098;-92
2021/06/04 07:13:01;;;;;;;5.93;3.53;;;;;;;;;;5057764;28;20028;-92
2021/06/04 07:15:27;;;;;;;5.45;3.13;;;;;;;;;;5057442;28;20053;-92
2021/06/04 07:17:57;;;;;;;4.65;3.22;;;;;;;;;;5058023;28;20035;-93
2021/06/04 07:20:24;;;;;;;4.72;3.25;;;;;;;;;;5057032;28;20021;-90
2021/06/04 07:22:51;;;;;;;6.85;3.38;;;;;;;;;;5058400;28;20021;-95
2021/06/04 07:25:18;;;;;;;6.30;3.50;;;;;;;;;;5057421;28;20029;-88
2021/06/04 07:27:45;;;;;;;5.93;3.30;;;;;;;;;;5058066;28;20033;-91
2021/06/04 07:30:12;;;;;;;4.55;3.20;;;;;;;;;;5058547;28;20021;-92
2021/06/04 07:32:40;;;;;;;6.95;3.40;;;;;;;;;;5057283;28;20071;-92
2021/06/04 07:35:07;;;;;;;6.55;3.47;;;;;;;;;;5056566;28;20048;-92
2021/06/04 07:37:34;;;;;;;6.47;3.22;;;;;;;;;;5057275;28;20025;-90
2021/06/04 07:40:00;;;;;;;8.40;4.22;;;;;;;;;;5057544;28;20021;-87
2021/06/04 07:42:27;;;;;;;4.45;2.90;;;;;;;;;;5056226;28;20386;-88
2021/06/04 07:44:53;;;;;;;7.38;3.35;;;;;;;;;;5056154;28;20036;-83
2021/06/04 07:47:25;;;;;;;7.80;3.65;;;;;;;;;;5056039;28;20033;-90
2021/06/04 07:49:51;;;;;;;4.75;3.03;;;;;;;;;;5054561;28;20107;-80
2021/06/04 07:52:18;;;;;;;5.53;2.92;;;;;;;;;;5055684;28;20087;-82
2021/06/04 07:54:44;;;;;;;5.32;3.40;;;;;;;;;;5054810;28;20037;-79
2021/06/04 07:57:10;;;;;;;7.38;3.20;;;;;;;;;;5056299;28;20053;-89
2021/06/04 07:59:36;;;;;;;7.63;3.58;;;;;;;;;;5055983;28;20024;-92
2021/06/04 08:02:02;;;;;;;4.30;3.17;;;;;;;;;;5056886;28;20036;-83
2021/06/04 08:04:28;;;;;;;8.57;3.38;;;;;;;;;;5055406;28;20029;-80
2021/06/04 08:06:54;;;;;;;4.78;3.38;;;;;;;;;;5055763;28;20025;-81
2021/06/04 08:09:21;;;;;;;8.73;3.60;;;;;;;;;;5055782;28;20458;-89
2021/06/04 08:11:49;;;;;;;7.95;3.55;;;;;;;;;;5056262;28;20156;-86
2021/06/04 08:14:18;;;;;;;3.90;3.03;;;;;;;;;;5055135;28;20017;-84
2021/06/04 08:16:45;;;;;;;4.45;3.30;;;;;;;;;;5055881;28;20052;-91
2021/06/04 08:19:11;;;;;;;7.78;3.20;;;;;;;;;;5057165;28;20013;-93
2021/06/04 08:21:40;;;;;;;3.97;2.88;;;;;;;;;;5055641;28;20445;-83
2021/06/04 08:24:08;;;;;;;9.48;3.40;;;;;;;;;;5054412;28;20025;-85
2021/06/04 08:26:34;;;;;;;4.55;2.90;;;;;;;;;;5055879;28;20025;-91
2021/06/04 08:29:01;;;;;;;4.00;2.90;;;;;;;;;;5055036;28;20477;-84
2021/06/04 08:31:28;;;;;;;6.93;3.30;;;;;;;;;;5056624;28;20140;-88
2021/06/04 08:33:55;;;;;;;5.53;2.90;;;;;;;;;;5056259;28;20086;-81
2021/06/04 08:36:23;;;;;;;5.53;2.85;;;;;;;;;;5054826;28;20046;-80
2021/06/04 08:38:49;;;;;;;5.90;3.00;;;;;;;;;;5054953;28;20111;-80
2021/06/04 08:41:31;;;;;;;5.35;3.15;;;;;;;;;;5054110;28;20032;-80
2021/06/04 08:44:11;;;;;;;5.15;3.53;;;;;;;;;;5054211;28;20058;-80
2021/06/04 08:46:39;;;;;;;4.80;2.85;;;;;;;;;;5054084;28;20025;-78
2021/06/04 08:49:13;;;;;;;6.20;3.17;;;;;;;;;;5053956;28;20020;-78
2021/06/04 08:51:43;;;;;;;4.80;2.80;;;;;;;;;;5053554;28;20113;-82
2021/06/04 08:54:29;;;;;;;5.80;2.90;;;;;;;;;;5053989;28;20025;-85
2021/06/04 08:57:05;;;;;;;5.18;2.67;;;;;;;;;;5053796;28;20029;-86
2021/06/04 08:59:34;;;;;;;5.78;2.60;;;;;;;;;;5054003;28;20029;-84
2021/06/04 09:02:07;;;;;;;5.15;3.20;;;;;;;;;;5053217;28;20032;-82
2021/06/04 09:04:36;;;;;;;6.90;2.83;;;;;;;;;;5053595;28;20036;-80
2021/06/04 09:07:02;;;;;;;4.03;2.72;;;;;;;;;;5054723;28;20029;-82
2021/06/04 09:09:47;;;;;;;3.38;2.33;;;;;;;;;;5053265;28;20434;-86
2021/06/04 09:12:18;;;;;;;7.57;2.60;;;;;;;;;;5037424;28;20052;-82
2021/06/04 09:14:45;;;;;;;6.93;2.30;;;;;;;;;;5033747;28;20426;-83
2021/06/04 09:17:18;;;;;;;4.50;2.25;;;;;;;;;;5033704;28;20478;-81
2021/06/04 09:19:54;;;;;;;2.70;1.80;;;;;;;;;;5033619;28;20056;-81
2021/06/04 09:22:21;;;;;;;4.07;2.20;;;;;;;;;;5033346;28;20088;-85
2021/06/04 09:24:50;;;;;;;7.72;2.38;;;;;;;;;;5033882;28;20036;-85
2021/06/04 09:27:33;;;;;;;3.47;2.05;;;;;;;;;;5033810;28;20112;-89
2021/06/04 09:30:22;;;;;;;4.95;2.40;;;;;;;;;;5033468;28;20120;-86
2021/06/04 09:33:03;;;;;;;5.70;2.00;;;;;;;;;;5033667;28;20498;-87
2021/06/04 09:35:30;;;;;;;4.30;2.00;;;;;;;;;;5034633;28;20478;-85
2021/06/04 09:38:11;;;;;;;4.65;2.00;;;;;;;;;;5033637;28;20503;-88
2021/06/04 09:40:38;;;;;;;7.32;2.13;;;;;;;;;;5033315;28;20029;-82
2021/06/04 09:43:14;;;;;;;4.75;1.70;;;;;;;;;;5032976;28;20056;-83
2021/06/04 09:45:43;;;;;;;4.60;1.70;;;;;;;;;;5033379;28;20021;-87
2021/06/04 09:48:12;;;;;;;4.82;1.98;;;;;;;;;;5033099;28;20172;-83
2021/06/04 09:50:38;;;;;;;3.05;1.98;;;;;;;;;;5032748;28;20509;-82
2021/06/04 09:53:22;;;;;;;3.75;1.95;;;;;;;;;;5033052;28;20111;-89
2021/06/04 09:55:50;;;;;;;3.33;2.00;;;;;;;;;;5033364;28;20523;-88
2021/06/04 09:58:17;;;;;;;7.05;1.80;;;;;;;;;;5035027;28;20036;-80
2021/06/04 10:00:45;;;;;;;3.88;1.83;;;;;;;;;;5033414;28;20033;-83
2021/06/04 10:03:31;;;;;;;3.30;1.85;;;;;;;;;;5032801;28;20033;-81
2021/06/04 10:06:06;;;;;;;4.65;1.80;;;;;;;;;;5032846;28;20032;-81
2021/06/04 10:08:41;;;;;;;4.25;1.63;;;;;;;;;;5032961;28;20029;-81
2021/06/04 10:11:12;;;;;;;4.13;1.90;;;;;;;;;;5040649;28;20473;-85
2021/06/04 10:14:18;;;;;;;5.07;1.92;;;;;;;;;;5054144;28;20493;-86
2021/06/04 10:19:17;;;;;;;3.00;1.80;;;;;;;;;;5049554;28;20033;-80
2021/06/04 10:21:43;;;;;;;10.40;1.92;;;;;;;;;;5052806;28;20178;-83
2021/06/04 10:24:21;;;;;;;5.68;1.70;;;;;;;;;;5054123;28;20029;-87
2021/06/04 10:26:53;;;;;;;3.70;1.50;;;;;;;;;;5052535;28;20025;-81
2021/06/04 10:29:19;;;;;;;;;;;;;;;;;;5053279;28;20079;-86
2021/06/04 10:31:45;;;;;;;7.57;1.35;;;;;;;;;;5054894;28;19912;-80
2021/06/04 10:34:18;;;;;;;2.30;1.60;;;;;;;;;;5061306;28;20025;-77
2021/06/04 10:36:46;;;;;;;2.25;1.58;;;;;;;;;;5054385;28;20029;-80
2021/06/04 10:39:22;;;;;;;3.42;2.03;;;;;;;;;;5052192;28;20087;-83
2021/06/04 10:41:51;;;;;;;4.07;1.85;;;;;;;;;;5051967;28;20094;-86
2021/06/04 10:44:17;;;;;;;3.33;1.70;;;;;;;;;;5052316;28;20025;-83
2021/06/04 10:46:47;;;;;;;3.55;1.75;;;;;;;;;;5052231;28;20032;-80
2021/06/04 10:49:31;;;;;;;3.85;1.77;;;;;;;;;;5052194;28;20116;-84
2021/06/04 10:51:59;;;;;;;2.60;1.70;;;;;;;;;;5052044;28;20053;-80
2021/06/04 10:54:40;;;;;;;5.30;2.10;;;;;;;;;;5052046;28;20116;-84
2021/06/04 10:57:18;;;;;;;13.98;2.72;;;;;;;;;;5052190;28;20067;-83
2021/06/04 10:59:44;;;;;;;4.18;1.98;;;;;;;;;;5053024;28;20075;-84
2021/06/04 11:02:20;;;;;;;4.38;2.13;;;;;;;;;;5052386;28;20037;-85
2021/06/04 11:05:04;;;;;;;4.60;2.13;;;;;;;;;;5052437;28;20382;-86
2021/06/04 11:07:43;;;;;;;3.17;2.03;;;;;;;;;;5052065;28;20113;-85
2021/06/04 11:10:28;;;;;;;3.85;2.08;;;;;;;;;;5053747;28;20062;-86
2021/06/04 11:13:04;;;;;;;4.07;2.20;;;;;;;;;;5033010;28;20080;-80
2021/06/04 11:15:42;;;;;;;3.50;2.00;;;;;;;;;;5032962;28;20116;-83
2021/06/04 11:18:14;;;;;;;3.50;1.95;;;;;;;;;;5032997;28;20030;-85
2021/06/04 11:20:43;;;;;;;7.03;2.40;;;;;;;;;;5035158;28;20061;-84
2021/06/04 11:23:12;;;;;;;4.00;2.47;;;;;;;;;;5032302;28;20064;-83
2021/06/04 11:25:52;;;;;;;4.28;1.88;;;;;;;;;;5036139;28;20482;-82
2021/06/04 11:28:38;;;;;;;3.03;2.00;;;;;;;;;;5037978;28;20558;-82
2021/06/04 11:31:06;;;;;;;4.43;2.15;;;;;;;;;;5037638;28;20029;-84
2021/06/04 11:33:37;;;;;;;5.72;2.00;;;;;;;;;;5036417;28;20053;-86
2021/06/04 11:36:12;;;;;;;3.75;2.05;;;;;;;;;;5036337;28;20022;-84
2021/06/04 11:38:47;;;;;;;9.10;2.85;;;;;;;;;;5036844;28;20052;-87
2021/06/04 11:41:26;;;;;;;5.80;2.05;;;;;;;;;;5037285;28;20041;-81
2021/06/04 11:44:03;;;;;;;3.40;2.33;;;;;;;;;;5035818;28;20069;-83
2021/06/04 11:46:31;;;;;;;4.60;2.05;;;;;;;;;;5036780;28;20429;-85
2021/06/04 11:49:03;;;;;;;3.50;2.08;;;;;;;;;;5036532;28;20026;-85
2021/06/04 11:51:29;;;;;;;5.18;2.35;;;;;;;;;;5036121;28;20482;-87
2021/06/04 11:53:57;;;;;;;5.28;2.10;;;;;;;;;;5036038;28;20035;-93
2021/06/04 11:56:38;;;;;;;13.00;2.08;;;;;;;;;;5036595;28;20029;-85
2021/06/04 11:59:07;;;;;;;3.92;2.17;;;;;;;;;;5036050;28;20383;-89
2021/06/04 12:01:56;;;;;;;3.00;1.80;;;;;;;;;;5036133;28;20021;-92
2021/06/04 12:04:23;;;;;;;2.90;1.80;;;;;;;;;;5029280;28;20160;-86
2021/06/04 12:06:49;;;;;;;2.53;1.77;;;;;;;;;;5036266;28;20025;-89
2021/06/04 12:09:31;;;;;;;4.00;2.03;;;;;;;;;;5037032;28;20032;-90
2021/06/04 12:12:16;;;;;;;4.55;2.33;;;;;;;;;;5049965;28;20036;-86
2021/06/04 12:15:11;;;;;;;5.15;1.90;;;;;;;;;;5055495;28;20044;-87
2021/06/04 12:17:38;;;;;;;8.90;1.92;;;;;;;;;;5057410;28;20074;-84
2021/06/04 12:20:16;;;;;;;3.20;1.98;;;;;;;;;;5055866;28;20040;-92
2021/06/04 12:22:53;;;;;;;3.28;2.13;;;;;;;;;;5055574;28;20032;-90
2021/06/04 12:25:37;;;;;;;5.93;2.20;;;;;;;;;;5056933;28;20021;-85
2021/06/04 12:28:09;;;;;;;3.67;2.20;;;;;;;;;;5059517;28;20028;-79
2021/06/04 12:30:43;;;;;;;2.67;1.80;;;;;;;;;;5067381;28;20101;-78
2021/06/04 12:33:09;;;;;;;3.40;1.92;;;;;;;;;;5058163;28;20028;-80
2021/06/04 12:35:46;;;;;;;3.22;1.90;;;;;;;;;;5055471;28;20032;-82
2021/06/04 12:38:32;;;;;;;3.55;1.77;;;;;;;;;;5061443;28;20434;-83
2021/06/04 12:41:00;;;;;;;4.68;1.95;;;;;;;;;;5056706;28;20033;-93
2021/06/04 12:43:28;;;;;;;3.67;2.03;;;;;;;;;;5054966;28;20033;-83
2021/06/04 12:45:55;;;;;;;3.42;2.03;;;;;;;;;;5055332;28;20397;-82
2021/06/04 12:48:21;;;;;;;5.97;1.70;;;;;;;;;;5054844;28;20025;-88
2021/06/04 12:50:47;;;;;;;3.42;1.70;;;;;;;;;;5054644;28;20027;-83
2021/06/04 12:53:13;;;;;;;4.05;1.83;;;;;;;;;;5054746;28;20144;-84
2021/06/04 12:55:41;;;;;;;6.55;1.70;;;;;;;;;;5054832;28;20021;-81
2021/06/04 12:58:13;;;;;;;4.15;2.08;;;;;;;;;;5054484;28;20029;-83
2021/06/04 13:00:39;;;;;;;2.90;1.80;;;;;;;;;;5055184;28;20029;-81
2021/06/04 13:03:11;;;;;;;3.35;1.80;;;;;;;;;;5055197;28;20059;-93
2021/06/04 13:05:37;;;;;;;3.50;1.83;;;;;;;;;;5055175;28;20025;-83
2021/06/04 13:08:09;;;;;;;4.28;1.88;;;;;;;;;;5055373;28;20025;-87
2021/06/04 13:10:38;;;;;;;4.18;2.15;;;;;;;;;;5052569;28;20551;-94
2021/06/04 13:13:23;;;;;;;3.25;1.80;;;;;;;;;;5034819;28;20029;-80
2021/06/04 13:15:49;;;;;;;3.75;1.77;;;;;;;;;;5034690;28;20037;-86
2021/06/04 13:18:21;;;;;;;5.05;2.10;;;;;;;;;;5033046;28;20177;-91
2021/06/04 13:20:50;;;;;;;2.72;1.90;;;;;;;;;;5034351;28;20031;-91
2021/06/04 13:23:27;;;;;;;3.05;1.88;;;;;;;;;;5034787;28;20029;-93
2021/06/04 13:26:12;;;;;;;4.57;2.30;;;;;;;;;;5033971;28;20025;-88
2021/06/04 13:28:41;;;;;;;4.70;1.92;;;;;;;;;;5033832;28;20116;-83
2021/06/04 13:31:13;;;;;;;8.57;2.20;;;;;;;;;;5033849;28;20029;-82
2021/06/04 13:33:43;;;;;;;6.13;2.28;;;;;;;;;;5035135;28;20079;-86
2021/06/04 13:36:09;;;;;;;3.25;1.80;;;;;;;;;;5034281;28;20112;-83
2021/06/04 13:38:38;;;;;;;3.63;1.77;;;;;;;;;;5034034;28;20033;-90
2021/06/04 13:41:07;;;;;;;4.47;2.00;;;;;;;;;;5033969;28;20104;-85
2021/06/04 13:43:40;;;;;;;4.88;1.92;;;;;;;;;;5033192;28;20034;-88
2021/06/04 13:46:11;;;;;;;7.60;2.17;;;;;;;;;;5035172;28;20036;-90
2021/06/04 13:48:37;;;;;;;3.83;2.03;;;;;;;;;;5035688;28;20021;-81
2021/06/04 13:51:11;;;;;;;5.95;1.98;;;;;;;;;;5040269;28;20021;-86
2021/06/04 13:53:40;;;;;;;4.07;2.25;;;;;;;;;;5032869;28;20073;-84
2021/06/04 13:56:30;;;;;;;6.60;2.22;;;;;;;;;;5032472;28;20025;-82
2021/06/04 13:59:14;;;;;;;4.55;2.00;;;;;;;;;;5024120;28;20037;-87
2021/06/04 14:01:51;;;;;;;10.80;2.25;;;;;;;;;;5033667;28;20028;-83
2021/06/04 14:04:38;;;;;;;3.78;2.13;;;;;;;;;;5032634;28;20482;-83
2021/06/04 14:07:06;;;;;;;3.10;2.00;;;;;;;;;;5032665;28;20095;-82
2021/06/04 14:09:36;;;;;;;3.58;2.25;;;;;;;;;;5034346;28;20030;-83
2021/06/04 14:12:05;;;;;;;5.78;2.70;;;;;;;;;;5032430;28;20029;-82
2021/06/04 14:14:34;;;;;;;5.75;2.40;;;;;;;;;;5032377;28;20029;-84
2021/06/04 14:17:01;;;;;;;7.95;2.00;;;;;;;;;;5034029;28;20025;-84
2021/06/04 14:19:33;;;;;;;2.97;1.80;;;;;;;;;;5032476;28;20091;-83
2021/06/04 14:22:01;;;;;;;5.90;2.13;;;;;;;;;;5032910;28;20038;-83
2021/06/04 14:24:27;;;;;;;3.95;2.30;;;;;;;;;;5040689;28;20029;-82
2021/06/04 14:26:59;;;;;;;5.70;2.08;;;;;;;;;;5036218;28;20491;-83
2021/06/04 14:29:28;;;;;;;3.25;1.90;;;;;;;;;;5032344;28;20028;-84
2021/06/04 14:31:57;;;;;;;3.33;2.22;;;;;;;;;;5032350;28;20071;-83
2021/06/04 14:34:27;;;;;;;3.90;2.20;;;;;;;;;;5032259;28;20022;-83
2021/06/04 14:36:54;;;;;;;7.00;1.98;;;;;;;;;;5032222;28;20044;-83
2021/06/04 14:39:35;;;;;;;6.25;1.92;;;;;;;;;;5032146;28;20029;-84
2021/06/04 14:42:04;;;;;;;5.07;2.25;;;;;;;;;;5032111;28;20033;-84
2021/06/04 14:44:30;;;;;;;6.03;1.95;;;;;;;;;;5033895;28;20030;-83
2021/06/04 14:47:12;;;;;;;7.25;1.90;;;;;;;;;;5033814;28;20056;-83
2021/06/04 14:49:38;;;;;;;4.43;2.05;;;;;;;;;;5033303;28;20109;-84
2021/06/04 14:52:05;;;;;;;7.22;2.60;;;;;;;;;;5033265;28;20093;-83
2021/06/04 14:54:33;;;;;;;4.43;2.08;;;;;;;;;;5033905;28;20033;-83
2021/06/04 14:56:59;;;;;;;2.85;2.00;;;;;;;;;;5033342;28;20466;-82
2021/06/04 14:59:26;;;;;;;3.40;2.13;;;;;;;;;;5032364;28;20102;-84
2021/06/04 15:01:53;;;;;;;3.67;2.15;;;;;;;;;;5035867;28;20083;-84
2021/06/04 15:04:19;;;;;;;3.72;2.20;;;;;;;;;;5037161;28;20034;-84